Wednesday, February 20, 2019, 8:29 PM GMT
Back to Local

CWNQ, Nicolet Automatic Weather Reporting System

Location: , , Canada Lat: 46.217
Local Time: 8:29 PM GMT (20:29 GMT) Lon: -72.65
Time Zone: GMT Elev: 32 ft

Show me the last for .
Show Coded

Time T Td Feel RH Dir Speed Gust Alt SLP Vis Weather Sky Remarks
2019-02-20 20:00 17 5 11 59 200° 3 - - 30.41 0 None
2019-02-20 19:00 15 4 - 59 270° 1 - - 30.44 0 None
2019-02-20 18:00 13 2 7 60 270° 3 - - 30.49 0 None
2019-02-20 17:00 11 -1 4 58 280° 3 - - 30.49 0 None
2019-02-20 16:00 9 -2 3 60 190° 3 - - 30.50 0 None
2019-02-20 15:00 2 -6 - 65 250° 2 - - 30.53 0 None
2019-02-20 14:00 -1 -8 - 73 190° 1 - - 30.54 0 None
2019-02-20 13:00 -7 -13 - 73 - Calm - - 30.54 0 None
2019-02-20 12:00 -11 -18 - 70 - Calm - - 30.53 0 None
2019-02-20 11:00 -11 -18 - 71 150° 2 - - 30.54 0 None
2019-02-20 10:00 -10 -17 - 72 70° 1 - - 30.55 0 None
2019-02-20 08:00 -10 -16 - 72 140° 2 - - 30.56 0 None
2019-02-20 07:00 -9 -15 - 72 190° 1 - - 30.55 0 None
2019-02-20 06:00 -7 -13 -18 73 190° 5 - - 30.55 0 None
2019-02-20 05:00 -2 -8 - 75 250° 2 - - 30.54 0 None
2019-02-20 04:00 0 -8 - 67 280° 1 - - 30.54 0 None
2019-02-20 03:00 1 -7 - 67 200° 2 - - 30.54 0 None
2019-02-20 02:00 1 -8 -7 65 210° 3 - - 30.53 0 None
2019-02-20 01:00 0 -9 -13 64 240° 7 - - 30.52 0 None
2019-02-20 00:00 6 -7 -8 55 230° 9 - - 30.50 0 None
2019-02-19 23:00 9 -4 -6 55 220° 12 - - 30.48 0 None
2019-02-19 22:00 10 -3 -2 54 210° 9 - - 30.46 0 None
2019-02-19 21:00 12 -1 -2 54 220° 10 - - 30.48 0 None

Support USWX by starting your Amazon purchase here.